Decoded Metar for LFBU (ANGOULEME in FRANCE) (IATA:ANG) | Meteo·Mobile Aviation Weather
aviador You're here:

LFBU Decoded Metar

ANGOULEME in FRANCE
Report Time2019-07-19 19:00:00
UTC Time2019-07-19 19:30:19
Flight Rules vfr VFR
Wind180° at 03 kt
W.Decomp.*RWY 10: 0.5 kt HW 3.0 kt RCW
Visibility9999 m
Phenomena:N/A
Clouds:N/A
Expected CloudBase > 5,600 ft AGL from Temp-Dew spread
CeilingNone
Temp27°C (ISA +13)
Dew Point13°C (42% RH)
Heat Index27.0°C
AAT26.8°C
QNH1013 hPa
Density Alt2,123 ft
Elevation436 ft
Report Wrong Elevation
Raw Report
METAR LFBU 191900Z AUTO 18003KT CAVOK 27/13 Q1013 NOSIG=

Extra information for LFBU:More info

Metar Taf Metar & Taf Last 4 Metars F.Rules Stats Wind Profile Meteogram Temp Stats Airport Information Weather charts Add Link Nearby VenuesMetar ALERT Operation Metar Decoded Social comments